Time;durP1;ratioP1;P1;durP2;ratioP2;P2;SDS_P1;SDS_P2;PMS_P1;PMS_P2;Temp;Humidity;BMP_temperature;BMP_pressure;BME280_temperature;BME280_humidity;BME280_pressure;Samples;Min_cycle;Max_cycle;Signal;HPM_P1;HPM_P2
2024/03/05 00:52:31;;;;;;;28.00;16.80;;;;;;;;;;2080780;28;20494;-81
2024/03/05 00:53:51;;;;;;;29.08;17.40;;;;;;;;;;2086675;28;20033;-81
2024/03/05 00:55:10;;;;;;;27.38;17.23;;;;;;;;;;2087715;28;20029;-82
2024/03/05 00:56:29;;;;;;;26.58;17.00;;;;;;;;;;2089238;28;20025;-82
2024/03/05 00:57:48;;;;;;;29.45;17.05;;;;;;;;;;2090328;28;20029;-79
2024/03/05 00:59:07;;;;;;;33.10;17.05;;;;;;;;;;2090070;28;20814;-81
2024/03/05 01:00:26;;;;;;;26.70;16.15;;;;;;;;;;2089156;28;20394;-81
2024/03/05 01:01:44;;;;;;;30.83;16.48;;;;;;;;;;2089069;28;20037;-81
2024/03/05 01:03:03;;;;;;;28.67;15.95;;;;;;;;;;2088010;28;20040;-77
2024/03/05 01:04:22;;;;;;;30.48;16.90;;;;;;;;;;2090229;28;20029;-81
2024/03/05 01:05:42;;;;;;;28.10;16.95;;;;;;;;;;2089287;28;20025;-81
2024/03/05 01:07:01;;;;;;;26.77;15.73;;;;;;;;;;2087042;28;20017;-75
2024/03/05 01:08:20;;;;;;;29.20;16.88;;;;;;;;;;2088586;28;20625;-75
2024/03/05 01:09:39;;;;;;;27.92;17.95;;;;;;;;;;2088203;28;20122;-75
2024/03/05 01:10:59;;;;;;;26.20;16.63;;;;;;;;;;2089274;28;20021;-75
2024/03/05 01:12:18;;;;;;;30.50;16.90;;;;;;;;;;2088946;28;20029;-76
2024/03/05 01:13:37;;;;;;;29.65;16.95;;;;;;;;;;2088089;28;20032;-76
2024/03/05 01:14:56;;;;;;;30.55;17.23;;;;;;;;;;2088620;28;20033;-75
2024/03/05 01:16:15;;;;;;;29.08;17.40;;;;;;;;;;2089178;28;20033;-75
2024/03/05 01:17:34;;;;;;;30.02;18.05;;;;;;;;;;2089328;28;20049;-75
2024/03/05 01:18:55;;;;;;;30.30;17.23;;;;;;;;;;2088889;28;20025;-75
2024/03/05 01:20:18;;;;;;;30.08;16.83;;;;;;;;;;2089259;28;20036;-75
2024/03/05 01:21:37;;;;;;;38.40;18.30;;;;;;;;;;2089950;28;20057;-75
2024/03/05 01:22:56;;;;;;;28.88;17.48;;;;;;;;;;2089089;28;20056;-75
2024/03/05 01:24:15;;;;;;;30.58;17.17;;;;;;;;;;2088624;28;20018;-75
2024/03/05 01:25:35;;;;;;;28.05;15.75;;;;;;;;;;2087405;28;20029;-75
2024/03/05 01:26:54;;;;;;;25.17;16.27;;;;;;;;;;2088364;28;20021;-75
2024/03/05 01:28:14;;;;;;;30.08;17.17;;;;;;;;;;2085278;28;20498;-75
2024/03/05 01:29:33;;;;;;;30.80;17.73;;;;;;;;;;2083459;28;20033;-75
2024/03/05 01:30:52;;;;;;;29.00;16.67;;;;;;;;;;2088391;28;20033;-75
2024/03/05 01:32:12;;;;;;;28.33;17.55;;;;;;;;;;2089378;28;20032;-75
2024/03/05 01:33:31;;;;;;;28.40;17.90;;;;;;;;;;2089180;28;20406;-75
2024/03/05 01:34:50;;;;;;;27.75;17.20;;;;;;;;;;2089501;28;20480;-75
2024/03/05 01:36:10;;;;;;;32.88;17.15;;;;;;;;;;2088112;28;20406;-76
2024/03/05 01:37:29;;;;;;;33.08;17.77;;;;;;;;;;2088761;28;20025;-75
2024/03/05 01:38:48;;;;;;;31.50;17.48;;;;;;;;;;2089389;28;20059;-76
2024/03/05 01:40:11;;;;;;;31.45;16.80;;;;;;;;;;2087360;28;20502;-75
2024/03/05 01:41:31;;;;;;;28.70;17.77;;;;;;;;;;2088205;28;20032;-75
2024/03/05 01:42:50;;;;;;;32.25;17.30;;;;;;;;;;2087288;28;20263;-75
2024/03/05 01:44:09;;;;;;;29.48;18.13;;;;;;;;;;2089259;28;20069;-76
2024/03/05 01:45:27;;;;;;;31.08;18.65;;;;;;;;;;2087911;28;20029;-76
2024/03/05 01:46:47;;;;;;;33.00;19.17;;;;;;;;;;2093441;28;20028;-76
2024/03/05 01:48:06;;;;;;;31.60;17.42;;;;;;;;;;2092321;28;20021;-75
2024/03/05 01:49:25;;;;;;;31.10;18.42;;;;;;;;;;2089375;28;20101;-76
2024/03/05 01:50:44;;;;;;;32.70;18.75;;;;;;;;;;2088498;28;20021;-75
2024/03/05 01:52:05;;;;;;;29.67;18.50;;;;;;;;;;2088594;28;20489;-75
2024/03/05 01:53:25;;;;;;;31.73;18.02;;;;;;;;;;2101424;28;20461;-75
2024/03/05 01:54:44;;;;;;;34.70;17.85;;;;;;;;;;2095625;28;20033;-75
2024/03/05 01:56:05;;;;;;;32.33;18.80;;;;;;;;;;2100932;28;20047;-75
2024/03/05 01:57:24;;;;;;;31.10;19.27;;;;;;;;;;2094410;28;20025;-76
2024/03/05 01:58:44;;;;;;;32.00;18.92;;;;;;;;;;2092717;28;20032;-75
2024/03/05 02:00:03;;;;;;;35.75;19.35;;;;;;;;;;2090884;28;20524;-75
2024/03/05 02:01:23;;;;;;;31.90;19.63;;;;;;;;;;2099576;28;20059;-76
2024/03/05 02:02:42;;;;;;;31.77;19.80;;;;;;;;;;2096285;28;20064;-75
2024/03/05 02:04:01;;;;;;;33.08;19.08;;;;;;;;;;2091569;28;20032;-75
2024/03/05 02:05:20;;;;;;;35.05;20.02;;;;;;;;;;2100917;28;20495;-75
2024/03/05 02:06:41;;;;;;;34.38;19.95;;;;;;;;;;2104990;28;20109;-75
2024/03/05 02:08:02;;;;;;;33.92;19.27;;;;;;;;;;2096568;28;20028;-75
2024/03/05 02:09:22;;;;;;;34.55;20.27;;;;;;;;;;2102318;28;20025;-75
2024/03/05 02:10:41;;;;;;;34.00;18.83;;;;;;;;;;2105158;28;20500;-75
2024/03/05 02:12:01;;;;;;;34.33;19.73;;;;;;;;;;2104929;28;20385;-75
2024/03/05 02:13:20;;;;;;;36.00;19.88;;;;;;;;;;2105231;28;20028;-76
2024/03/05 02:14:40;;;;;;;39.85;20.88;;;;;;;;;;2103723;28;20385;-75
2024/03/05 02:15:59;;;;;;;37.28;19.33;;;;;;;;;;2096317;28;20077;-76
2024/03/05 02:17:18;;;;;;;33.72;19.35;;;;;;;;;;2101349;28;20028;-74
2024/03/05 02:18:37;;;;;;;37.78;19.95;;;;;;;;;;2096130;28;20028;-73
2024/03/05 02:19:56;;;;;;;34.53;19.27;;;;;;;;;;2101394;28;20485;-73
2024/03/05 02:21:22;;;;;;;38.45;21.45;;;;;;;;;;2102271;28;20060;-73
2024/03/05 02:22:41;;;;;;;31.70;19.30;;;;;;;;;;2105623;28;20036;-72
2024/03/05 02:24:00;;;;;;;44.17;20.52;;;;;;;;;;2105452;28;20028;-73
2024/03/05 02:25:20;;;;;;;36.17;20.60;;;;;;;;;;2096067;28;20117;-73
2024/03/05 02:26:39;;;;;;;39.33;21.25;;;;;;;;;;2094168;28;20024;-72
2024/03/05 02:27:58;;;;;;;35.65;19.70;;;;;;;;;;2102560;28;20028;-73
2024/03/05 02:29:17;;;;;;;31.23;18.73;;;;;;;;;;2105119;28;20391;-73
2024/03/05 02:30:36;;;;;;;31.92;19.08;;;;;;;;;;2105625;28;20032;-73
2024/03/05 02:31:54;;;;;;;32.17;19.15;;;;;;;;;;2104879;28;20024;-73
2024/03/05 02:33:14;;;;;;;36.22;20.17;;;;;;;;;;2106050;28;20060;-72
2024/03/05 02:34:34;;;;;;;34.00;19.42;;;;;;;;;;2105702;28;20029;-73
2024/03/05 02:35:59;;;;;;;34.80;20.85;;;;;;;;;;2104117;28;20036;-73
2024/03/05 02:37:18;;;;;;;30.17;19.27;;;;;;;;;;2105247;28;20032;-73
2024/03/05 02:38:38;;;;;;;37.88;20.75;;;;;;;;;;2102485;28;20147;-73
2024/03/05 02:39:57;;;;;;;33.30;20.98;;;;;;;;;;2104938;28;20032;-73
2024/03/05 02:41:16;;;;;;;34.78;19.95;;;;;;;;;;2104287;28;20028;-73
2024/03/05 02:42:35;;;;;;;36.95;20.35;;;;;;;;;;2104200;28;20020;-73
2024/03/05 02:43:56;;;;;;;36.92;20.40;;;;;;;;;;2094494;28;20028;-73
2024/03/05 02:45:15;;;;;;;34.55;21.20;;;;;;;;;;2102046;28;20119;-73
2024/03/05 02:46:35;;;;;;;36.17;20.48;;;;;;;;;;2105428;28;20100;-74
2024/03/05 02:47:54;;;;;;;34.78;20.45;;;;;;;;;;2105490;28;20035;-74
2024/03/05 02:49:13;;;;;;;34.35;19.98;;;;;;;;;;2102017;28;21713;-76
2024/03/05 02:50:34;;;;;;;37.38;21.58;;;;;;;;;;2105225;28;20036;-73
2024/03/05 02:51:54;;;;;;;36.63;19.95;;;;;;;;;;2096226;28;20104;-74
2024/03/05 02:53:13;;;;;;;32.55;19.05;;;;;;;;;;2100798;28;20040;-74
2024/03/05 02:54:33;;;;;;;34.80;19.20;;;;;;;;;;2105348;28;20040;-73
2024/03/05 02:55:52;;;;;;;31.77;19.25;;;;;;;;;;2105082;28;20039;-73
2024/03/05 02:57:11;;;;;;;36.70;19.63;;;;;;;;;;2104548;28;20032;-73
2024/03/05 02:58:30;;;;;;;32.45;19.85;;;;;;;;;;2095572;28;20036;-74
2024/03/05 02:59:51;;;;;;;33.67;20.13;;;;;;;;;;2099438;28;20086;-73
2024/03/05 03:01:10;;;;;;;37.40;20.73;;;;;;;;;;2105350;28;20047;-73
2024/03/05 03:02:29;;;;;;;33.95;19.33;;;;;;;;;;2104535;28;20032;-73
2024/03/05 03:03:48;;;;;;;35.35;20.88;;;;;;;;;;2105224;28;20512;-73
2024/03/05 03:05:07;;;;;;;37.80;21.00;;;;;;;;;;2096155;28;20115;-72
2024/03/05 03:06:26;;;;;;;36.08;18.33;;;;;;;;;;2100754;28;20120;-73
2024/03/05 03:07:45;;;;;;;33.65;19.90;;;;;;;;;;2105335;28;20431;-73
2024/03/05 03:09:04;;;;;;;32.85;20.00;;;;;;;;;;2103546;28;20051;-73
2024/03/05 03:10:23;;;;;;;27.85;18.17;;;;;;;;;;2095745;28;20032;-73
2024/03/05 03:11:47;;;;;;;33.65;18.50;;;;;;;;;;2101332;28;20028;-73
2024/03/05 03:13:06;;;;;;;29.80;17.98;;;;;;;;;;2104596;28;20521;-73
2024/03/05 03:14:25;;;;;;;29.83;18.73;;;;;;;;;;2104811;28;20032;-74
2024/03/05 03:15:44;;;;;;;33.33;18.73;;;;;;;;;;2104333;28;20040;-73
2024/03/05 03:17:03;;;;;;;31.90;18.13;;;;;;;;;;2104756;28;20417;-73
2024/03/05 03:18:22;;;;;;;31.52;18.27;;;;;;;;;;2105752;28;20032;-73
2024/03/05 03:19:42;;;;;;;29.35;18.85;;;;;;;;;;2104826;28;20035;-73
2024/03/05 03:21:03;;;;;;;30.17;18.25;;;;;;;;;;2104489;28;20413;-73
2024/03/05 03:22:21;;;;;;;28.60;17.25;;;;;;;;;;2095669;28;20033;-73
2024/03/05 03:23:40;;;;;;;26.88;16.40;;;;;;;;;;2095189;28;20036;-73
2024/03/05 03:24:59;;;;;;;31.17;17.42;;;;;;;;;;2100807;28;20082;-73
2024/03/05 03:26:18;;;;;;;28.25;17.20;;;;;;;;;;2105129;28;20020;-80
2024/03/05 03:27:37;;;;;;;31.60;17.33;;;;;;;;;;2104003;28;20682;-82
2024/03/05 03:28:57;;;;;;;34.35;17.35;;;;;;;;;;2095861;28;20528;-82
2024/03/05 03:30:20;;;;;;;29.23;16.80;;;;;;;;;;2102255;28;20492;-82
2024/03/05 03:31:47;;;;;;;33.45;17.65;;;;;;;;;;2105129;28;20032;-81
2024/03/05 03:33:06;;;;;;;29.15;17.90;;;;;;;;;;2093800;28;20028;-81
2024/03/05 03:34:26;;;;;;;32.10;18.65;;;;;;;;;;2092429;28;20513;-82
2024/03/05 03:35:45;;;;;;;32.42;17.92;;;;;;;;;;2101706;28;20565;-80
2024/03/05 03:37:04;;;;;;;26.95;16.63;;;;;;;;;;2097343;28;20584;-82
2024/03/05 03:38:23;;;;;;;35.40;17.73;;;;;;;;;;2093174;28;20037;-82
2024/03/05 03:39:42;;;;;;;26.33;16.98;;;;;;;;;;2096769;28;20092;-81
2024/03/05 03:41:01;;;;;;;30.45;17.15;;;;;;;;;;2095385;28;20029;-81
2024/03/05 03:42:20;;;;;;;27.02;17.70;;;;;;;;;;2102390;28;20270;-81
2024/03/05 03:43:39;;;;;;;26.23;16.98;;;;;;;;;;2105224;28;20024;-77
2024/03/05 03:45:00;;;;;;;31.42;18.42;;;;;;;;;;2105171;28;20028;-82
2024/03/05 03:46:20;;;;;;;28.50;16.65;;;;;;;;;;2104885;28;20032;-82
2024/03/05 03:47:39;;;;;;;32.28;17.95;;;;;;;;;;2096416;28;20016;-81
2024/03/05 03:48:57;;;;;;;28.02;16.98;;;;;;;;;;2101127;28;20497;-81
2024/03/05 03:50:16;;;;;;;30.08;16.73;;;;;;;;;;2105988;28;20028;-81
2024/03/05 03:51:35;;;;;;;27.52;16.52;;;;;;;;;;2104586;28;20024;-81
2024/03/05 03:52:54;;;;;;;26.17;15.32;;;;;;;;;;2096099;28;20048;-81
2024/03/05 03:54:13;;;;;;;29.48;17.38;;;;;;;;;;2092764;28;20028;-81
2024/03/05 03:55:32;;;;;;;29.35;16.85;;;;;;;;;;2092118;28;20028;-81
2024/03/05 03:56:52;;;;;;;28.70;16.45;;;;;;;;;;2095308;28;20028;-81
2024/03/05 03:58:11;;;;;;;27.20;16.67;;;;;;;;;;2095967;28;20490;-82
2024/03/05 03:59:30;;;;;;;23.40;16.02;;;;;;;;;;2097223;28;20120;-82
2024/03/05 04:00:49;;;;;;;30.98;17.48;;;;;;;;;;2095879;28;20068;-80
2024/03/05 04:02:09;;;;;;;30.58;16.48;;;;;;;;;;2096047;28;20033;-82
2024/03/05 04:03:29;;;;;;;28.52;16.63;;;;;;;;;;2095370;28;20100;-79
2024/03/05 04:04:49;;;;;;;28.23;17.00;;;;;;;;;;2094933;28;20048;-81
2024/03/05 04:06:08;;;;;;;23.42;15.45;;;;;;;;;;2098073;28;20545;-82
2024/03/05 04:07:29;;;;;;;25.98;16.42;;;;;;;;;;2096754;28;20032;-79
2024/03/05 04:08:48;;;;;;;27.83;16.27;;;;;;;;;;2094788;28;20108;-82
2024/03/05 04:10:07;;;;;;;25.58;16.08;;;;;;;;;;2096511;28;20449;-82
2024/03/05 04:11:26;;;;;;;26.23;15.48;;;;;;;;;;2094732;28;20025;-82
2024/03/05 04:12:45;;;;;;;24.92;14.73;;;;;;;;;;2091955;28;20025;-81
2024/03/05 04:14:05;;;;;;;33.80;16.60;;;;;;;;;;2095134;28;20028;-81
2024/03/05 04:15:24;;;;;;;29.33;16.20;;;;;;;;;;2095711;28;20025;-81
2024/03/05 04:16:44;;;;;;;29.10;15.48;;;;;;;;;;2092966;28;20068;-81
2024/03/05 04:18:03;;;;;;;27.95;16.23;;;;;;;;;;2096464;28;20143;-81
2024/03/05 04:19:22;;;;;;;30.25;18.17;;;;;;;;;;2094264;28;20037;-80
2024/03/05 04:20:41;;;;;;;29.70;17.20;;;;;;;;;;2095977;28;20032;-80
2024/03/05 04:22:02;;;;;;;27.00;16.25;;;;;;;;;;2095711;28;20032;-82
2024/03/05 04:23:21;;;;;;;27.05;16.83;;;;;;;;;;2096770;28;20041;-82
2024/03/05 04:24:52;;;;;;;21.40;14.73;;;;;;;;;;2096099;28;20036;-78
2024/03/05 04:26:13;;;;;;;28.83;15.88;;;;;;;;;;2098368;28;20032;-82
2024/03/05 04:27:33;;;;;;;31.15;16.05;;;;;;;;;;2093975;28;20092;-81
2024/03/05 04:28:54;;;;;;;27.65;16.70;;;;;;;;;;2098209;28;20385;-82
2024/03/05 04:30:14;;;;;;;27.33;15.82;;;;;;;;;;2096497;28;20032;-83
2024/03/05 04:31:34;;;;;;;29.98;16.98;;;;;;;;;;2097800;28;20478;-81
2024/03/05 04:33:03;;;;;;;27.80;15.52;;;;;;;;;;2098257;28;20486;-82
2024/03/05 04:34:22;;;;;;;28.35;16.85;;;;;;;;;;2096992;28;20033;-82
2024/03/05 04:35:42;;;;;;;29.23;15.73;;;;;;;;;;2096967;28;20033;-83
2024/03/05 04:37:02;;;;;;;25.98;15.10;;;;;;;;;;2097453;28;20519;-80
2024/03/05 04:38:21;;;;;;;28.58;16.08;;;;;;;;;;2097194;28;20037;-80
2024/03/05 04:39:43;;;;;;;25.02;15.57;;;;;;;;;;2098511;28;20081;-82
2024/03/05 04:41:02;;;;;;;32.47;16.20;;;;;;;;;;2097985;28;20032;-82
2024/03/05 04:42:22;;;;;;;28.33;16.02;;;;;;;;;;2096738;28;20025;-81
2024/03/05 04:43:41;;;;;;;27.77;16.13;;;;;;;;;;2097772;28;20029;-82
2024/03/05 04:45:00;;;;;;;28.48;15.32;;;;;;;;;;2098524;28;20521;-79
2024/03/05 04:46:19;;;;;;;26.58;15.32;;;;;;;;;;2097949;28;20025;-80
2024/03/05 04:47:38;;;;;;;25.27;14.63;;;;;;;;;;2098594;28;20385;-82
2024/03/05 04:48:57;;;;;;;29.80;14.82;;;;;;;;;;2099872;28;20032;-80
2024/03/05 04:50:17;;;;;;;20.38;14.30;;;;;;;;;;2096300;28;20021;-81
2024/03/05 04:51:37;;;;;;;24.40;14.30;;;;;;;;;;2098044;28;20029;-77
2024/03/05 04:52:55;;;;;;;25.00;14.55;;;;;;;;;;2101228;28;20040;-81
2024/03/05 04:54:15;;;;;;;24.58;14.15;;;;;;;;;;2105936;28;20067;-81
2024/03/05 04:55:34;;;;;;;20.10;12.85;;;;;;;;;;2096671;28;20029;-80
2024/03/05 04:56:53;;;;;;;24.33;14.18;;;;;;;;;;2102457;28;20107;-82
2024/03/05 04:58:13;;;;;;;25.40;15.30;;;;;;;;;;2105310;28;20032;-80
2024/03/05 04:59:32;;;;;;;24.27;13.68;;;;;;;;;;2106009;28;20020;-80
2024/03/05 05:00:51;;;;;;;24.48;14.23;;;;;;;;;;2105786;28;20119;-79
2024/03/05 05:02:10;;;;;;;24.30;14.75;;;;;;;;;;2103761;28;20024;-80
2024/03/05 05:03:29;;;;;;;26.27;14.55;;;;;;;;;;2105161;28;20493;-81
2024/03/05 05:04:48;;;;;;;25.50;13.75;;;;;;;;;;2106124;28;20024;-78
2024/03/05 05:06:07;;;;;;;19.75;13.43;;;;;;;;;;2105409;28;20020;-79
2024/03/05 05:07:26;;;;;;;27.42;14.55;;;;;;;;;;2105609;28;20057;-80
2024/03/05 05:08:45;;;;;;;28.10;13.55;;;;;;;;;;2093189;28;20044;-80
2024/03/05 05:10:06;;;;;;;22.73;13.68;;;;;;;;;;2093430;28;20028;-80
2024/03/05 05:11:25;;;;;;;24.85;13.85;;;;;;;;;;2101896;28;20518;-77
2024/03/05 05:12:44;;;;;;;25.08;14.68;;;;;;;;;;2104202;28;20557;-78
2024/03/05 05:14:04;;;;;;;22.23;14.32;;;;;;;;;;2093802;28;20025;-80
2024/03/05 05:15:23;;;;;;;22.73;12.85;;;;;;;;;;2099239;28;20658;-80
2024/03/05 05:16:44;;;;;;;27.75;14.68;;;;;;;;;;2105435;28;20036;-80
2024/03/05 05:18:04;;;;;;;18.10;13.10;;;;;;;;;;2105299;28;20036;-80
2024/03/05 05:19:25;;;;;;;28.33;14.32;;;;;;;;;;2104394;28;20032;-79
2024/03/05 05:20:44;;;;;;;25.98;14.35;;;;;;;;;;2105468;28;20028;-78
2024/03/05 05:22:04;;;;;;;23.60;13.93;;;;;;;;;;2096862;28;20583;-79
2024/03/05 05:23:23;;;;;;;22.80;13.48;;;;;;;;;;2101667;28;20099;-80
2024/03/05 05:24:43;;;;;;;24.13;13.00;;;;;;;;;;2096210;28;20036;-78
2024/03/05 05:26:02;;;;;;;23.10;12.75;;;;;;;;;;2101992;28;20072;-80
2024/03/05 05:27:21;;;;;;;20.33;13.13;;;;;;;;;;2105193;28;20076;-77
2024/03/05 05:28:41;;;;;;;25.13;13.18;;;;;;;;;;2106512;28;20032;-78
2024/03/05 05:29:59;;;;;;;21.67;13.57;;;;;;;;;;2096585;28;20493;-81
2024/03/05 05:31:26;;;;;;;21.65;12.80;;;;;;;;;;2094343;28;20037;-81
2024/03/05 05:32:46;;;;;;;21.70;12.73;;;;;;;;;;2103468;28;20485;-80
2024/03/05 05:34:05;;;;;;;29.13;13.55;;;;;;;;;;2105679;28;20037;-80
2024/03/05 05:35:24;;;;;;;21.10;13.05;;;;;;;;;;2107033;28;20028;-78
2024/03/05 05:36:42;;;;;;;20.27;13.50;;;;;;;;;;2104223;28;20439;-79
2024/03/05 05:38:03;;;;;;;27.10;13.60;;;;;;;;;;2096369;28;20409;-79
2024/03/05 05:39:24;;;;;;;19.08;13.00;;;;;;;;;;2102547;28;20028;-79
2024/03/05 05:40:43;;;;;;;23.88;13.13;;;;;;;;;;2096612;28;20429;-80
2024/03/05 05:42:02;;;;;;;20.48;12.40;;;;;;;;;;2101267;28;20032;-79
2024/03/05 05:43:21;;;;;;;18.33;12.35;;;;;;;;;;2105845;28;20063;-80
2024/03/05 05:44:40;;;;;;;26.38;13.77;;;;;;;;;;2103594;28;21175;-80
2024/03/05 05:46:03;;;;;;;22.90;12.77;;;;;;;;;;2105604;28;20036;-76
2024/03/05 05:47:22;;;;;;;20.20;13.25;;;;;;;;;;2106426;28;20020;-76
2024/03/05 05:48:48;;;;;;;23.67;13.52;;;;;;;;;;2104845;28;20032;-78
2024/03/05 05:50:17;;;;;;;26.15;13.70;;;;;;;;;;2105484;28;20032;-77
2024/03/05 05:51:38;;;;;;;20.50;12.90;;;;;;;;;;2104718;28;20020;-76
2024/03/05 05:52:57;;;;;;;21.88;12.32;;;;;;;;;;2105636;28;20032;-77
2024/03/05 05:54:16;;;;;;;22.73;13.30;;;;;;;;;;2104588;28;20040;-75
2024/03/05 05:55:36;;;;;;;21.25;12.45;;;;;;;;;;2104150;28;20107;-75
2024/03/05 05:56:55;;;;;;;19.80;11.95;;;;;;;;;;2104045;28;20032;-76
2024/03/05 05:58:15;;;;;;;19.45;11.98;;;;;;;;;;2096452;28;20024;-76
2024/03/05 05:59:34;;;;;;;19.95;12.57;;;;;;;;;;2101900;28;20024;-76
2024/03/05 06:00:54;;;;;;;18.75;12.07;;;;;;;;;;2104846;28;20028;-76
2024/03/05 06:02:17;;;;;;;19.83;12.23;;;;;;;;;;2096190;28;20020;-77
2024/03/05 06:03:37;;;;;;;19.70;12.15;;;;;;;;;;2102150;28;20024;-76
2024/03/05 06:04:57;;;;;;;21.15;12.73;;;;;;;;;;2104656;28;20028;-76
2024/03/05 06:06:16;;;;;;;20.55;11.93;;;;;;;;;;2104735;28;20028;-77
2024/03/05 06:07:35;;;;;;;16.38;10.38;;;;;;;;;;2105190;28;20024;-76
2024/03/05 06:08:54;;;;;;;24.88;12.38;;;;;;;;;;2107270;28;20020;-76
2024/03/05 06:10:17;;;;;;;18.05;11.20;;;;;;;;;;2096985;28;20481;-75
2024/03/05 06:11:36;;;;;;;17.45;11.32;;;;;;;;;;2095470;28;20028;-77
2024/03/05 06:12:55;;;;;;;17.95;11.93;;;;;;;;;;2095546;28;20024;-78
2024/03/05 06:14:15;;;;;;;20.15;11.55;;;;;;;;;;2097868;28;20032;-76
2024/03/05 06:15:37;;;;;;;18.17;11.48;;;;;;;;;;2104232;28;20031;-78
2024/03/05 06:16:57;;;;;;;16.30;11.63;;;;;;;;;;2104833;28;20103;-77
2024/03/05 06:18:15;;;;;;;21.73;12.32;;;;;;;;;;2096738;28;20033;-77
2024/03/05 06:19:35;;;;;;;19.75;12.05;;;;;;;;;;2100560;28;20039;-77
2024/03/05 06:20:56;;;;;;;20.50;11.82;;;;;;;;;;2105180;28;20032;-76
2024/03/05 06:22:15;;;;;;;16.85;11.32;;;;;;;;;;2104925;28;20028;-76
2024/03/05 06:23:37;;;;;;;21.05;12.00;;;;;;;;;;2100767;28;20028;-79
2024/03/05 06:24:57;;;;;;;15.18;11.27;;;;;;;;;;2101479;28;20028;-76
2024/03/05 06:26:16;;;;;;;17.23;11.30;;;;;;;;;;2103464;28;20020;-77
2024/03/05 06:27:36;;;;;;;18.25;10.48;;;;;;;;;;2103393;28;20501;-77
2024/03/05 06:28:55;;;;;;;19.08;10.63;;;;;;;;;;2104608;28;20119;-77
2024/03/05 06:30:21;;;;;;;15.10;10.48;;;;;;;;;;2097394;28;20024;-77
2024/03/05 06:31:40;;;;;;;18.35;11.02;;;;;;;;;;2101607;28;20089;-78
2024/03/05 06:32:59;;;;;;;12.63;10.15;;;;;;;;;;2094300;28;20032;-78
2024/03/05 06:34:18;;;;;;;19.55;10.20;;;;;;;;;;2099060;28;20021;-79
2024/03/05 06:35:38;;;;;;;12.55;9.55;;;;;;;;;;2104737;28;20408;-80
2024/03/05 06:36:57;;;;;;;15.57;10.45;;;;;;;;;;2102454;28;20024;-78
2024/03/05 06:38:17;;;;;;;14.13;9.23;;;;;;;;;;2104456;28;20032;-78
2024/03/05 06:39:41;;;;;;;18.00;9.85;;;;;;;;;;2104765;28;20024;-78
2024/03/05 06:41:00;;;;;;;16.52;10.75;;;;;;;;;;2103363;28;20028;-78
2024/03/05 06:42:19;;;;;;;17.02;9.63;;;;;;;;;;2093250;28;20107;-78
2024/03/05 06:43:38;;;;;;;15.90;9.93;;;;;;;;;;2095558;28;20016;-78
2024/03/05 06:45:05;;;;;;;15.20;9.73;;;;;;;;;;2100346;28;20486;-78
2024/03/05 06:46:29;;;;;;;15.65;9.50;;;;;;;;;;2095895;28;20036;-78
2024/03/05 06:47:56;;;;;;;16.58;9.02;;;;;;;;;;2100326;28;20024;-78
2024/03/05 06:49:15;;;;;;;16.40;9.80;;;;;;;;;;2103916;28;20511;-81
2024/03/05 06:50:36;;;;;;;14.07;9.73;;;;;;;;;;2094423;28;20056;-78
2024/03/05 06:56:39;;;;;;;14.00;9.95;;;;;;;;;;2087247;28;20032;-78
2024/03/05 06:56:50;;;;;;;16.00;9.27;;;;;;;;;;2104427;28;20036;-81
2024/03/05 06:58:09;;;;;;;13.73;9.00;;;;;;;;;;2103202;28;20388;-80
2024/03/05 06:59:28;;;;;;;13.85;8.07;;;;;;;;;;2096928;28;20028;-82
2024/03/05 07:00:49;;;;;;;17.15;8.32;;;;;;;;;;2092108;28;20513;-82
2024/03/05 07:02:08;;;;;;;16.67;8.02;;;;;;;;;;2102618;28;20039;-82
2024/03/05 07:03:28;;;;;;;13.43;8.73;;;;;;;;;;2103161;28;20028;-81
2024/03/05 07:04:49;;;;;;;13.32;8.88;;;;;;;;;;2105099;28;20024;-82
2024/03/05 07:06:17;;;;;;;11.02;8.73;;;;;;;;;;2105478;28;20036;-82
2024/03/05 07:07:36;;;;;;;13.27;8.10;;;;;;;;;;2095191;28;20064;-81
2024/03/05 07:08:56;;;;;;;14.27;8.85;;;;;;;;;;2102661;28;20028;-81
2024/03/05 07:10:15;;;;;;;14.30;8.73;;;;;;;;;;2104811;28;20393;-81
2024/03/05 07:11:34;;;;;;;11.23;7.70;;;;;;;;;;2105174;28;20024;-80
2024/03/05 07:12:53;;;;;;;12.10;7.80;;;;;;;;;;2092415;28;20067;-81
2024/03/05 07:14:12;;;;;;;15.23;9.27;;;;;;;;;;2100391;28;20516;-82
2024/03/05 07:15:31;;;;;;;11.38;8.20;;;;;;;;;;2096283;28;20028;-82
2024/03/05 07:16:52;;;;;;;11.05;8.35;;;;;;;;;;2102387;28;20028;-81
2024/03/05 07:18:11;;;;;;;13.00;7.90;;;;;;;;;;2093127;28;20456;-82
2024/03/05 07:19:30;;;;;;;11.48;8.55;;;;;;;;;;2099939;28;20036;-82
2024/03/05 07:20:48;;;;;;;14.05;8.60;;;;;;;;;;2104400;28;20067;-81
2024/03/05 07:22:07;;;;;;;14.20;8.77;;;;;;;;;;2105277;28;20051;-81
2024/03/05 07:23:28;;;;;;;13.32;8.38;;;;;;;;;;2104813;28;20028;-82
2024/03/05 07:24:47;;;;;;;16.15;8.70;;;;;;;;;;2105553;28;20095;-82
2024/03/05 07:26:07;;;;;;;14.68;8.93;;;;;;;;;;2104932;28;20353;-81
2024/03/05 07:27:26;;;;;;;12.38;7.75;;;;;;;;;;2096145;28;20036;-82
2024/03/05 07:28:45;;;;;;;14.60;8.95;;;;;;;;;;2092232;28;20021;-82
2024/03/05 07:30:04;;;;;;;18.48;9.18;;;;;;;;;;2096591;28;20032;-82
2024/03/05 07:31:25;;;;;;;15.52;7.97;;;;;;;;;;2097705;28;20024;-82
2024/03/05 07:32:45;;;;;;;11.73;8.60;;;;;;;;;;2094562;28;20037;-81
2024/03/05 07:34:04;;;;;;;13.85;8.90;;;;;;;;;;2101752;28;20032;-83
2024/03/05 07:35:23;;;;;;;19.52;8.43;;;;;;;;;;2105713;28;20028;-82
2024/03/05 07:36:43;;;;;;;10.85;7.70;;;;;;;;;;2095961;28;20029;-81
2024/03/05 07:38:07;;;;;;;9.75;7.63;;;;;;;;;;2102400;28;20095;-90
2024/03/05 07:39:26;;;;;;;15.40;8.27;;;;;;;;;;2092838;28;20525;-84
2024/03/05 07:40:45;;;;;;;13.52;8.50;;;;;;;;;;2090965;28;20036;-84
2024/03/05 07:42:05;;;;;;;12.43;9.20;;;;;;;;;;2101192;28;20020;-81
2024/03/05 07:43:25;;;;;;;10.63;8.25;;;;;;;;;;2106067;28;20032;-85
2024/03/05 07:44:44;;;;;;;13.90;8.93;;;;;;;;;;2103802;28;20036;-82
2024/03/05 07:46:03;;;;;;;16.27;7.60;;;;;;;;;;2093161;28;20413;-84
2024/03/05 07:47:22;;;;;;;19.92;8.85;;;;;;;;;;2100591;28;20036;-83
2024/03/05 07:48:41;;;;;;;12.73;8.20;;;;;;;;;;2096281;28;20029;-82
2024/03/05 07:50:00;;;;;;;10.88;7.93;;;;;;;;;;2095470;28;20513;-83
2024/03/05 07:51:19;;;;;;;13.60;8.20;;;;;;;;;;2102277;28;20568;-82
2024/03/05 07:52:38;;;;;;;11.02;8.13;;;;;;;;;;2096257;28;20099;-83
2024/03/05 07:53:57;;;;;;;10.95;7.65;;;;;;;;;;2100809;28;20027;-83
2024/03/05 07:55:18;;;;;;;12.13;8.70;;;;;;;;;;2094757;28;20052;-81
2024/03/05 07:56:37;;;;;;;16.33;8.77;;;;;;;;;;2099309;28;20412;-82
2024/03/05 07:57:56;;;;;;;12.95;8.32;;;;;;;;;;2103606;28;20024;-82
2024/03/05 07:59:15;;;;;;;16.60;8.43;;;;;;;;;;2103714;28;20024;-82
2024/03/05 08:00:35;;;;;;;12.60;8.15;;;;;;;;;;2104545;28;20695;-82
2024/03/05 08:01:55;;;;;;;8.98;7.32;;;;;;;;;;2095070;28;20048;-81
2024/03/05 08:03:14;;;;;;;18.77;7.75;;;;;;;;;;2102092;28;20067;-82
2024/03/05 08:04:33;;;;;;;13.05;7.85;;;;;;;;;;2104800;28;20099;-80
2024/03/05 08:05:52;;;;;;;12.75;8.07;;;;;;;;;;2092213;28;20032;-80
2024/03/05 08:07:11;;;;;;;12.10;8.10;;;;;;;;;;2100585;28;20044;-78
2024/03/05 08:08:30;;;;;;;16.38;8.18;;;;;;;;;;2104283;28;20028;-78
2024/03/05 08:09:49;;;;;;;10.45;7.88;;;;;;;;;;2092250;28;20063;-79
2024/03/05 08:11:08;;;;;;;12.25;7.93;;;;;;;;;;2090388;28;20020;-78
2024/03/05 08:12:27;;;;;;;13.90;8.38;;;;;;;;;;2096244;28;20029;-79
2024/03/05 08:13:46;;;;;;;11.07;8.30;;;;;;;;;;2096375;28;20053;-79
2024/03/05 08:15:15;;;;;;;10.50;7.43;;;;;;;;;;2101207;28;20381;-78
2024/03/05 08:16:34;;;;;;;19.88;7.72;;;;;;;;;;2095680;28;20417;-79
2024/03/05 08:17:53;;;;;;;17.77;7.72;;;;;;;;;;2092420;28;20037;-79
2024/03/05 08:19:12;;;;;;;11.80;7.53;;;;;;;;;;2102231;28;20107;-79
2024/03/05 08:20:30;;;;;;;13.23;7.82;;;;;;;;;;2104453;28;20103;-78
2024/03/05 08:21:49;;;;;;;9.93;7.72;;;;;;;;;;2096030;28;20021;-79
2024/03/05 08:23:09;;;;;;;12.18;7.32;;;;;;;;;;2100719;28;20032;-79
2024/03/05 08:24:28;;;;;;;12.85;7.63;;;;;;;;;;2094567;28;20020;-79
2024/03/05 08:25:51;;;;;;;13.55;8.20;;;;;;;;;;2100428;28;20420;-78
2024/03/05 08:27:10;;;;;;;11.35;7.47;;;;;;;;;;2104855;28;20036;-78
2024/03/05 08:28:29;;;;;;;13.55;8.48;;;;;;;;;;2105039;28;20020;-79
2024/03/05 08:29:49;;;;;;;11.30;7.63;;;;;;;;;;2104537;28;20024;-79
2024/03/05 08:31:10;;;;;;;14.85;8.02;;;;;;;;;;2105126;28;20028;-78
2024/03/05 08:32:28;;;;;;;12.52;7.78;;;;;;;;;;2096192;28;20072;-78
2024/03/05 08:33:47;;;;;;;11.48;7.93;;;;;;;;;;2100969;28;20389;-79
2024/03/05 08:35:09;;;;;;;13.52;7.28;;;;;;;;;;2104853;28;20028;-78
2024/03/05 08:36:31;;;;;;;10.55;6.90;;;;;;;;;;2104311;28;20025;-78
2024/03/05 08:37:50;;;;;;;9.93;7.60;;;;;;;;;;2094967;28;20103;-79
2024/03/05 08:39:17;;;;;;;13.60;7.75;;;;;;;;;;2099761;28;20024;-79
2024/03/05 08:40:36;;;;;;;10.82;7.80;;;;;;;;;;2102561;28;20024;-79
2024/03/05 08:41:55;;;;;;;12.77;8.23;;;;;;;;;;2095870;28;20024;-78